createdAt,value
2018-05-12T00:00:06.402Z,13.43
2018-05-12T00:02:34.004Z,13.41
2018-05-12T00:05:01.497Z,13.40
2018-05-12T00:07:29.002Z,13.39
2018-05-12T00:09:56.589Z,13.36
2018-05-12T00:12:24.044Z,13.36
2018-05-12T00:14:51.537Z,13.31
2018-05-12T00:17:19.006Z,13.28
2018-05-12T00:19:46.496Z,13.27
2018-05-12T00:22:14.032Z,13.26
2018-05-12T00:24:41.621Z,13.29
2018-05-12T00:27:09.076Z,13.29
2018-05-12T00:29:36.655Z,13.26
2018-05-12T00:32:04.137Z,13.28
2018-05-12T00:34:31.633Z,13.28
2018-05-12T00:36:59.104Z,13.27
2018-05-12T00:39:26.613Z,13.22
2018-05-12T00:41:54.169Z,13.19
2018-05-12T00:44:21.664Z,13.17
2018-05-12T00:46:49.151Z,13.19
2018-05-12T00:49:16.624Z,13.20
2018-05-12T00:51:44.128Z,13.20
2018-05-12T00:54:11.604Z,13.16
2018-05-12T00:56:39.048Z,13.15
2018-05-12T00:59:06.569Z,13.15
2018-05-12T01:01:34.052Z,13.15
2018-05-12T01:04:01.537Z,13.14
2018-05-12T01:06:29.049Z,13.12
2018-05-12T01:08:56.525Z,13.10
2018-05-12T01:11:23.981Z,13.10
2018-05-12T01:13:51.513Z,13.09
2018-05-12T01:16:19.019Z,13.06
2018-05-12T01:18:46.471Z,13.01
2018-05-12T01:21:13.960Z,12.99
2018-05-12T01:23:41.456Z,12.98
2018-05-12T01:26:08.908Z,13.01
2018-05-12T01:28:36.389Z,12.97
2018-05-12T01:31:03.884Z,12.96
2018-05-12T01:33:31.381Z,12.96
2018-05-12T01:35:58.847Z,12.98
2018-05-12T01:38:26.328Z,12.96
2018-05-12T01:40:53.920Z,12.93
2018-05-12T01:43:21.467Z,12.93
2018-05-12T01:45:48.952Z,12.90
2018-05-12T01:48:16.416Z,12.89
2018-05-12T01:50:43.919Z,12.88
2018-05-12T01:53:11.387Z,12.87
2018-05-12T01:55:38.944Z,12.86
2018-05-12T01:58:06.423Z,12.85
2018-05-12T02:00:33.878Z,12.85
2018-05-12T02:03:01.374Z,12.84
2018-05-12T02:05:28.865Z,12.82
2018-05-12T02:07:56.331Z,12.82
2018-05-12T02:10:23.879Z,12.81
2018-05-12T02:12:51.471Z,12.81
2018-05-12T02:15:18.948Z,12.82
2018-05-12T02:17:46.480Z,12.84
2018-05-12T02:20:13.968Z,12.83
2018-05-12T02:22:41.469Z,12.83
2018-05-12T02:25:09.001Z,12.82
2018-05-12T02:27:36.500Z,12.85
2018-05-12T02:30:03.990Z,12.89
2018-05-12T02:32:31.478Z,12.96
2018-05-12T02:34:58.975Z,13.03
2018-05-12T02:37:26.454Z,13.10
2018-05-12T02:39:53.958Z,13.17
2018-05-12T02:42:21.469Z,13.22
2018-05-12T02:44:48.983Z,13.25
2018-05-12T02:47:16.478Z,13.26
2018-05-12T02:49:43.970Z,13.28
2018-05-12T02:52:11.488Z,13.32
2018-05-12T02:54:39.023Z,13.34
2018-05-12T02:57:06.501Z,13.39
2018-05-12T02:59:33.986Z,13.42
2018-05-12T03:02:01.450Z,13.40
2018-05-12T03:04:28.935Z,13.41
2018-05-12T03:06:56.408Z,13.44
2018-05-12T03:09:23.909Z,13.45
2018-05-12T03:11:51.386Z,13.48
2018-05-12T03:14:18.868Z,13.50
2018-05-12T03:16:46.328Z,13.50
2018-05-12T03:19:13.833Z,13.52
2018-05-12T03:21:41.378Z,13.54
2018-05-12T03:24:08.858Z,13.56
2018-05-12T03:26:36.346Z,13.59
2018-05-12T03:29:03.810Z,13.60
2018-05-12T03:31:31.321Z,13.63
2018-05-12T03:33:58.793Z,13.67
2018-05-12T03:36:26.335Z,13.67
2018-05-12T03:38:53.912Z,13.68
2018-05-12T03:41:21.453Z,13.73
2018-05-12T03:43:48.943Z,13.77
2018-05-12T03:46:16.399Z,13.77
2018-05-12T03:48:43.939Z,13.81
2018-05-12T03:51:11.499Z,13.87
2018-05-12T03:53:38.976Z,13.91
2018-05-12T03:56:06.457Z,13.97
2018-05-12T03:58:33.979Z,14.04
2018-05-12T04:01:01.471Z,14.04
2018-05-12T04:03:29.099Z,14.03
2018-05-12T04:06:08.509Z,14.06
2018-05-12T04:08:47.856Z,14.14
2018-05-12T04:11:28.176Z,14.18
2018-05-12T04:13:55.667Z,14.19
2018-05-12T04:16:23.137Z,14.22
2018-05-12T04:18:50.620Z,14.21
2018-05-12T04:21:18.122Z,14.24
2018-05-12T04:23:45.698Z,14.27
2018-05-12T04:26:13.253Z,14.25
2018-05-12T04:28:40.814Z,14.23
2018-05-12T04:31:08.273Z,14.27
2018-05-12T04:33:35.751Z,14.27
2018-05-12T04:36:03.232Z,14.26
2018-05-12T04:38:30.739Z,14.22
2018-05-12T04:40:58.237Z,14.19
2018-05-12T04:43:25.816Z,14.19
2018-05-12T04:45:53.252Z,14.22
2018-05-12T04:48:20.720Z,14.30
2018-05-12T04:50:48.214Z,14.32
2018-05-12T04:53:15.696Z,14.39
2018-05-12T04:55:43.181Z,14.52
2018-05-12T04:58:10.693Z,14.67
2018-05-12T05:00:38.189Z,15.06
2018-05-12T05:03:05.693Z,15.50
2018-05-12T05:05:33.173Z,16.18
2018-05-12T05:08:00.663Z,16.73
2018-05-12T05:10:28.181Z,16.89
2018-05-12T05:12:55.734Z,16.64
2018-05-12T05:15:23.307Z,16.17
2018-05-12T05:17:50.753Z,15.82
2018-05-12T05:20:18.342Z,15.70
2018-05-12T05:22:45.823Z,15.78
2018-05-12T05:25:13.313Z,15.85
2018-05-12T05:27:40.790Z,15.81
2018-05-12T05:30:08.250Z,15.81
2018-05-12T05:32:35.824Z,15.96
2018-05-12T05:35:03.298Z,16.18
2018-05-12T05:37:30.802Z,16.30
2018-05-12T05:39:58.409Z,16.44
2018-05-12T05:42:25.883Z,16.64
2018-05-12T05:44:53.350Z,16.74
2018-05-12T05:47:20.831Z,16.76
2018-05-12T05:49:48.325Z,16.79
2018-05-12T05:52:15.829Z,16.86
2018-05-12T05:54:43.372Z,16.96
2018-05-12T05:57:10.836Z,17.04
2018-05-12T05:59:38.329Z,17.22
2018-05-12T06:02:05.861Z,17.38
2018-05-12T06:04:33.358Z,17.46
2018-05-12T06:07:00.870Z,17.72
2018-05-12T06:09:28.382Z,17.99
2018-05-12T06:11:55.876Z,18.13
2018-05-12T06:14:23.339Z,18.26
2018-05-12T06:16:50.825Z,18.35
2018-05-12T06:19:18.423Z,18.51
2018-05-12T06:21:45.916Z,18.39
2018-05-12T06:24:13.411Z,18.30
2018-05-12T06:26:40.859Z,18.22
2018-05-12T06:29:08.313Z,18.24
2018-05-12T06:31:35.787Z,18.40
2018-05-12T06:34:03.276Z,18.70
2018-05-12T06:36:30.759Z,19.12
2018-05-12T06:38:58.249Z,19.09
2018-05-12T06:41:25.847Z,19.02
2018-05-12T06:43:53.311Z,19.07
2018-05-12T06:46:20.948Z,19.02
2018-05-12T06:48:48.489Z,19.13
2018-05-12T06:51:15.955Z,19.12
2018-05-12T06:53:43.523Z,18.64
2018-05-12T06:56:11.005Z,18.38
2018-05-12T06:58:38.508Z,18.27
2018-05-12T07:01:06.023Z,18.40
2018-05-12T07:03:33.543Z,18.59
2018-05-12T07:06:01.106Z,18.88
2018-05-12T07:08:28.680Z,19.27
2018-05-12T07:10:56.197Z,19.44
2018-05-12T07:13:23.712Z,19.67
2018-05-12T07:15:51.186Z,19.59
2018-05-12T07:18:18.688Z,19.47
2018-05-12T07:20:46.172Z,19.47
2018-05-12T07:23:13.625Z,19.54
2018-05-12T07:25:41.172Z,19.38
2018-05-12T07:28:08.658Z,19.12
2018-05-12T07:30:36.153Z,18.91
2018-05-12T07:33:03.749Z,18.83
2018-05-12T07:35:31.212Z,18.81
2018-05-12T07:37:58.704Z,18.81
2018-05-12T07:40:26.219Z,19.29
2018-05-12T07:42:53.705Z,19.84
2018-05-12T07:45:21.161Z,20.09
2018-05-12T07:47:48.654Z,20.17
2018-05-12T07:50:16.181Z,19.95
2018-05-12T07:52:43.715Z,19.82
2018-05-12T07:55:11.295Z,19.71
2018-05-12T07:57:38.865Z,19.45
2018-05-12T08:00:06.383Z,19.77
2018-05-12T08:02:33.864Z,20.11
2018-05-12T08:05:01.408Z,20.13
2018-05-12T08:07:28.908Z,19.77
2018-05-12T08:09:56.411Z,19.31
2018-05-12T08:12:23.888Z,19.22
2018-05-12T08:14:51.347Z,19.18
2018-05-12T08:17:18.939Z,19.35
2018-05-12T08:19:46.408Z,19.39
2018-05-12T08:22:14.457Z,19.51
2018-05-12T08:24:41.978Z,19.74
2018-05-12T08:27:09.577Z,19.80
2018-05-12T08:29:37.128Z,19.75
2018-05-12T08:32:04.876Z,19.66
2018-05-12T08:34:32.693Z,19.88
2018-05-12T08:37:00.335Z,19.82
2018-05-12T08:39:28.081Z,19.86
2018-05-12T08:41:55.606Z,19.96
2018-05-12T08:44:23.098Z,20.15
2018-05-12T08:46:50.566Z,20.39
2018-05-12T08:49:18.119Z,20.89
2018-05-12T08:51:45.657Z,21.25
2018-05-12T08:54:13.183Z,21.57
2018-05-12T08:56:40.674Z,21.31
2018-05-12T08:59:08.160Z,21.06
2018-05-12T09:01:35.805Z,20.85
2018-05-12T09:04:03.326Z,20.57
2018-05-12T09:06:30.891Z,20.34
2018-05-12T09:08:58.338Z,20.34
2018-05-12T09:11:25.805Z,20.37
2018-05-12T09:13:53.307Z,20.55
2018-05-12T09:16:20.804Z,20.39
2018-05-12T09:18:48.280Z,20.47
2018-05-12T09:21:15.770Z,20.50
2018-05-12T09:23:43.250Z,20.83
2018-05-12T09:26:10.759Z,20.44
2018-05-12T09:28:38.260Z,20.23
2018-05-12T09:31:05.827Z,20.18
2018-05-12T09:33:33.318Z,20.35
2018-05-12T09:36:00.887Z,20.54
2018-05-12T09:38:28.462Z,20.42
2018-05-12T09:40:56.039Z,20.16
2018-05-12T09:43:23.527Z,20.39
2018-05-12T09:45:51.037Z,20.89
2018-05-12T09:48:18.557Z,21.40
2018-05-12T09:50:46.046Z,21.01
2018-05-12T09:53:13.505Z,21.05
2018-05-12T09:55:40.971Z,21.13
2018-05-12T09:58:08.767Z,21.15
2018-05-12T10:00:36.228Z,21.35
2018-05-12T10:03:03.700Z,21.08
2018-05-12T10:05:31.172Z,20.96
2018-05-12T10:07:58.670Z,21.23
2018-05-12T10:10:26.160Z,21.27
2018-05-12T10:12:53.702Z,21.73
2018-05-12T10:15:21.166Z,21.95
2018-05-12T10:17:48.772Z,22.08
2018-05-12T10:20:16.230Z,21.51
2018-05-12T10:22:43.702Z,21.17
2018-05-12T10:25:11.248Z,21.24
2018-05-12T10:27:38.746Z,21.39
2018-05-12T10:30:06.244Z,21.54
2018-05-12T10:32:33.716Z,21.53
2018-05-12T10:35:01.381Z,21.70
2018-05-12T10:37:28.904Z,21.94
2018-05-12T10:39:56.368Z,22.11
2018-05-12T10:42:23.975Z,22.17
2018-05-12T10:44:51.559Z,22.03
2018-05-12T10:47:19.055Z,21.70
2018-05-12T10:49:46.555Z,21.72
2018-05-12T10:52:14.452Z,21.64
2018-05-12T10:54:41.973Z,21.88
2018-05-12T10:57:09.466Z,21.97
2018-05-12T10:59:36.965Z,22.04
2018-05-12T11:02:04.488Z,22.05
2018-05-12T11:04:31.955Z,21.93
2018-05-12T11:06:59.528Z,21.62
2018-05-12T11:09:27.025Z,21.74
2018-05-12T11:11:54.497Z,21.76
2018-05-12T11:14:22.136Z,21.75
2018-05-12T11:16:49.623Z,21.81
2018-05-12T11:19:17.108Z,21.57
2018-05-12T11:21:44.638Z,21.55
2018-05-12T11:24:12.121Z,21.96
2018-05-12T11:26:39.620Z,22.08
2018-05-12T11:29:07.103Z,22.13
2018-05-12T11:31:34.596Z,22.00
2018-05-12T11:34:02.087Z,22.04
2018-05-12T11:36:29.595Z,22.05
2018-05-12T11:38:57.077Z,22.13
2018-05-12T11:41:24.576Z,21.99
2018-05-12T11:43:52.052Z,22.22
2018-05-12T11:46:19.526Z,22.26
2018-05-12T11:48:47.030Z,22.06
2018-05-12T11:51:14.666Z,22.07
2018-05-12T11:53:42.191Z,21.82
2018-05-12T11:56:09.688Z,21.73
2018-05-12T11:58:37.216Z,21.77
2018-05-12T12:01:04.809Z,21.77
2018-05-12T12:03:32.328Z,22.09
2018-05-12T12:05:59.912Z,21.84
2018-05-12T12:08:27.417Z,22.06
2018-05-12T12:10:54.939Z,22.33
2018-05-12T12:13:22.431Z,22.54
2018-05-12T12:15:49.902Z,22.57
2018-05-12T12:18:17.407Z,23.00
2018-05-12T12:20:44.893Z,23.45
2018-05-12T12:23:12.425Z,23.52
2018-05-12T12:25:39.916Z,23.50
2018-05-12T12:28:07.446Z,23.49
2018-05-12T12:30:34.943Z,23.25
2018-05-12T12:33:02.430Z,23.13
2018-05-12T12:35:30.001Z,23.27
2018-05-12T12:37:57.492Z,23.33
2018-05-12T12:40:24.996Z,23.31
2018-05-12T12:42:52.521Z,22.96
2018-05-12T12:45:20.051Z,22.71
2018-05-12T12:47:47.577Z,22.72
2018-05-12T12:50:15.138Z,22.52
2018-05-12T12:52:42.713Z,22.45
2018-05-12T12:55:10.184Z,22.35
2018-05-12T12:57:37.750Z,22.30
2018-05-12T13:00:05.230Z,22.30
2018-05-12T13:02:32.724Z,22.29
2018-05-12T13:05:00.237Z,22.38
2018-05-12T13:07:27.755Z,22.60
2018-05-12T13:09:55.285Z,22.75
2018-05-12T13:12:22.880Z,22.81
2018-05-12T13:14:50.406Z,22.93
2018-05-12T13:17:17.867Z,23.02
2018-05-12T13:19:45.446Z,22.92
2018-05-12T13:22:12.981Z,22.90
2018-05-12T13:24:40.488Z,22.98
2018-05-12T13:27:07.981Z,23.09
2018-05-12T13:29:35.439Z,23.27
2018-05-12T13:32:02.905Z,23.35
2018-05-12T13:34:30.365Z,23.22
2018-05-12T13:36:57.841Z,23.13
2018-05-12T13:39:25.341Z,23.19
2018-05-12T13:41:52.862Z,22.88
2018-05-12T13:44:20.341Z,22.82
2018-05-12T13:46:47.807Z,22.74
2018-05-12T13:49:15.352Z,22.48
2018-05-12T13:51:42.835Z,22.65
2018-05-12T13:54:10.340Z,22.86
2018-05-12T13:56:37.907Z,22.90
2018-05-12T13:59:05.503Z,23.31
2018-05-12T14:01:33.078Z,23.73
2018-05-12T14:04:00.535Z,24.05
2018-05-12T14:06:28.057Z,24.17
2018-05-12T14:08:55.636Z,24.23
2018-05-12T14:11:23.111Z,24.45
2018-05-12T14:13:50.611Z,24.21
2018-05-12T14:16:18.080Z,24.07
2018-05-12T14:18:45.565Z,24.05
2018-05-12T14:21:13.034Z,23.78
2018-05-12T14:23:40.491Z,23.32
2018-05-12T14:26:08.022Z,23.08
2018-05-12T14:28:35.493Z,23.30
2018-05-12T14:31:02.964Z,23.41
2018-05-12T14:33:30.515Z,23.48
2018-05-12T14:35:58.031Z,23.48
2018-05-12T14:38:25.531Z,23.43
2018-05-12T14:40:53.218Z,23.73
2018-05-12T14:43:20.750Z,24.09
2018-05-12T14:45:48.273Z,24.16
2018-05-12T14:48:15.783Z,24.37
2018-05-12T14:50:43.273Z,24.61
2018-05-12T14:53:10.808Z,24.43
2018-05-12T14:55:38.288Z,24.30
2018-05-12T14:58:05.765Z,24.17
2018-05-12T15:00:33.244Z,24.38
2018-05-12T15:03:00.729Z,24.66
2018-05-12T15:05:28.218Z,25.29
2018-05-12T15:07:55.701Z,27.00
2018-05-12T15:10:23.167Z,28.08
2018-05-12T15:12:50.664Z,28.17
2018-05-12T15:15:18.173Z,26.32
2018-05-12T15:17:45.635Z,24.92
2018-05-12T15:20:13.089Z,25.72
2018-05-12T15:22:40.606Z,27.20
2018-05-12T15:25:08.099Z,28.77
2018-05-12T15:27:35.674Z,29.72
2018-05-12T15:30:03.198Z,30.07
2018-05-12T15:32:30.679Z,30.26
2018-05-12T15:34:58.155Z,30.13
2018-05-12T15:37:25.657Z,30.51
2018-05-12T15:39:53.176Z,30.06
2018-05-12T15:42:20.676Z,30.30
2018-05-12T15:44:48.127Z,30.19
2018-05-12T15:47:15.620Z,30.39
2018-05-12T15:49:43.121Z,29.78
2018-05-12T15:52:10.614Z,28.95
2018-05-12T15:54:38.117Z,27.45
2018-05-12T15:57:05.616Z,26.92
2018-05-12T15:59:33.117Z,27.61
2018-05-12T16:02:00.652Z,28.25
2018-05-12T16:04:28.248Z,28.15
2018-05-12T16:06:55.736Z,27.65
2018-05-12T16:09:23.225Z,26.80
2018-05-12T16:11:50.724Z,26.09
2018-05-12T16:14:18.207Z,25.20
2018-05-12T16:16:45.766Z,25.15
2018-05-12T16:19:13.286Z,25.25
2018-05-12T16:21:40.777Z,25.24
2018-05-12T16:24:08.281Z,25.19
2018-05-12T16:26:35.778Z,25.08
2018-05-12T16:29:03.251Z,25.11
2018-05-12T16:31:30.851Z,24.82
2018-05-12T16:33:58.264Z,24.65
2018-05-12T16:36:25.813Z,24.59
2018-05-12T16:38:53.328Z,24.77
2018-05-12T16:41:20.826Z,24.78
2018-05-12T16:43:48.283Z,24.38
2018-05-12T16:46:15.848Z,24.44
2018-05-12T16:48:43.376Z,24.40
2018-05-12T16:51:10.894Z,24.37
2018-05-12T16:53:38.396Z,24.66
2018-05-12T16:56:05.854Z,24.63
2018-05-12T16:58:33.377Z,23.77
2018-05-12T17:01:00.995Z,23.41
2018-05-12T17:03:28.459Z,23.28
2018-05-12T17:05:55.941Z,23.20
2018-05-12T17:08:23.405Z,23.05
2018-05-12T17:10:50.877Z,22.97
2018-05-12T17:13:18.457Z,22.98
2018-05-12T17:15:46.115Z,22.93
2018-05-12T17:18:13.685Z,22.89
2018-05-12T17:20:41.273Z,22.82
2018-05-12T17:23:09.081Z,22.78
2018-05-12T17:25:37.611Z,22.78
2018-05-12T17:28:05.123Z,22.72
2018-05-12T17:30:32.607Z,22.62
2018-05-12T17:33:00.167Z,22.54
2018-05-12T17:35:27.659Z,22.48
2018-05-12T17:37:55.144Z,22.41
2018-05-12T17:40:22.936Z,22.38
2018-05-12T17:42:50.546Z,22.37
2018-05-12T17:45:18.109Z,22.35
2018-05-12T17:47:45.686Z,22.35
2018-05-12T17:50:13.226Z,22.31
2018-05-12T17:52:41.001Z,22.27
2018-05-12T17:55:09.601Z,22.22
2018-05-12T17:57:37.087Z,22.17
2018-05-12T18:00:04.594Z,22.12
2018-05-12T18:02:32.076Z,22.07
2018-05-12T18:04:59.600Z,22.02
2018-05-12T18:07:27.133Z,21.99
2018-05-12T18:09:54.777Z,21.95
2018-05-12T18:12:22.475Z,21.91
2018-05-12T18:14:50.065Z,21.87
2018-05-12T18:17:17.895Z,21.83
2018-05-12T18:19:45.461Z,21.78
2018-05-12T18:22:13.024Z,21.72
2018-05-12T18:24:40.518Z,21.67
2018-05-12T18:27:08.103Z,21.61
2018-05-12T18:29:35.585Z,21.54
2018-05-12T18:32:03.081Z,21.48
2018-05-12T18:34:30.591Z,21.43
2018-05-12T18:36:58.097Z,21.37
2018-05-12T18:39:25.623Z,21.32
2018-05-12T18:41:53.203Z,21.26
2018-05-12T18:44:20.695Z,21.20
2018-05-12T18:46:48.209Z,21.14
2018-05-12T18:49:18.537Z,21.08
2018-05-12T18:51:46.020Z,21.02
2018-05-12T18:54:16.432Z,20.95
2018-05-12T18:56:44.004Z,20.88
2018-05-12T18:59:11.398Z,20.83
2018-05-12T19:01:38.914Z,20.80
2018-05-12T19:04:06.453Z,20.77
2018-05-12T19:06:34.012Z,20.73
2018-05-12T19:09:01.533Z,20.67
2018-05-12T19:11:29.119Z,20.64
2018-05-12T19:13:56.599Z,20.62
2018-05-12T19:16:24.072Z,20.56
2018-05-12T19:18:51.604Z,20.50
2018-05-12T19:21:19.084Z,20.45
2018-05-12T19:23:46.564Z,20.41
2018-05-12T19:26:14.053Z,20.36
2018-05-12T19:28:41.774Z,20.32
2018-05-12T19:31:09.309Z,20.29
2018-05-12T19:33:36.867Z,20.26
2018-05-12T19:36:04.367Z,20.21
2018-05-12T19:38:31.971Z,20.19
2018-05-12T19:40:59.447Z,20.14
2018-05-12T19:43:26.922Z,20.11
2018-05-12T19:45:54.439Z,20.07
2018-05-12T19:48:21.956Z,20.03
2018-05-12T19:50:49.457Z,19.97
2018-05-12T19:53:16.980Z,19.93
2018-05-12T19:55:44.437Z,19.89
2018-05-12T19:58:11.937Z,19.86
2018-05-12T20:00:39.498Z,19.83
2018-05-12T20:03:07.069Z,19.81
2018-05-12T20:05:34.553Z,19.77
2018-05-12T20:08:02.076Z,19.75
2018-05-12T20:10:29.563Z,19.71
2018-05-12T20:12:57.069Z,19.67
2018-05-12T20:15:24.558Z,19.63
2018-05-12T20:17:52.067Z,19.60
2018-05-12T20:20:19.557Z,19.57
2018-05-12T20:22:47.014Z,19.54
2018-05-12T20:25:14.482Z,19.50
2018-05-12T20:27:41.978Z,19.46
2018-05-12T20:30:09.499Z,19.43
2018-05-12T20:32:36.968Z,19.42
2018-05-12T20:35:04.522Z,19.37
2018-05-12T20:37:32.139Z,19.35
2018-05-12T20:39:59.556Z,19.33
2018-05-12T20:42:27.060Z,19.29
2018-05-12T20:44:54.568Z,19.25
2018-05-12T20:47:22.024Z,19.22
2018-05-12T20:49:49.512Z,19.20
2018-05-12T20:52:17.014Z,19.19
2018-05-12T20:54:44.508Z,19.15
2018-05-12T20:57:12.011Z,19.12
2018-05-12T20:59:39.684Z,19.09
2018-05-12T21:02:07.248Z,19.07
2018-05-12T21:04:34.707Z,19.04
2018-05-12T21:07:02.188Z,19.00
2018-05-12T21:09:29.677Z,18.95
2018-05-12T21:11:57.171Z,18.91
2018-05-12T21:14:25.396Z,18.90
2018-05-12T21:16:52.891Z,18.88
2018-05-12T21:19:20.437Z,18.85
2018-05-12T21:21:47.910Z,18.73
2018-05-12T21:24:15.396Z,18.62
2018-05-12T21:26:42.873Z,18.55
2018-05-12T21:29:10.342Z,18.47
2018-05-12T21:31:37.994Z,18.40
2018-05-12T21:34:05.455Z,18.35
2018-05-12T21:36:32.952Z,18.30
2018-05-12T21:39:00.465Z,18.23
2018-05-12T21:41:27.985Z,18.17
2018-05-12T21:43:55.535Z,18.08
2018-05-12T21:46:23.542Z,18.05
2018-05-12T21:48:51.105Z,17.99
2018-05-12T21:51:18.582Z,17.98
2018-05-12T21:53:46.086Z,17.90
2018-05-12T21:56:13.622Z,17.81
2018-05-12T21:58:41.173Z,17.75
2018-05-12T22:01:08.754Z,17.67
2018-05-12T22:03:36.237Z,17.59
2018-05-12T22:06:03.746Z,17.51
2018-05-12T22:08:31.241Z,17.48
2018-05-12T22:10:58.775Z,17.40
2018-05-12T22:13:26.278Z,17.36
2018-05-12T22:15:53.790Z,17.32
2018-05-12T22:18:21.310Z,17.24
2018-05-12T22:20:48.844Z,17.21
2018-05-12T22:23:16.304Z,17.19
2018-05-12T22:25:43.828Z,17.14
2018-05-12T22:28:11.327Z,17.11
2018-05-12T22:30:38.826Z,17.04
2018-05-12T22:33:06.318Z,16.97
2018-05-12T22:35:33.779Z,16.96
2018-05-12T22:38:01.241Z,16.91
2018-05-12T22:40:31.662Z,16.90
2018-05-12T22:42:59.229Z,16.84
2018-05-12T22:45:26.743Z,16.79
2018-05-12T22:47:54.209Z,16.76
2018-05-12T22:50:21.803Z,16.74
2018-05-12T22:52:49.301Z,16.71
2018-05-12T22:55:16.771Z,16.66
2018-05-12T22:57:44.243Z,16.63
2018-05-12T23:00:11.731Z,16.65
2018-05-12T23:02:39.303Z,16.60
2018-05-12T23:05:06.793Z,16.59
2018-05-12T23:07:34.316Z,16.57
2018-05-12T23:10:01.827Z,16.55
2018-05-12T23:12:29.633Z,16.51
2018-05-12T23:14:57.131Z,16.46
2018-05-12T23:17:24.620Z,16.45
2018-05-12T23:19:52.113Z,16.37
2018-05-12T23:22:19.609Z,16.30
2018-05-12T23:24:47.194Z,16.27
2018-05-12T23:27:14.697Z,16.27
2018-05-12T23:29:42.186Z,16.25
2018-05-12T23:32:09.705Z,16.22
2018-05-12T23:34:37.238Z,16.19
2018-05-12T23:37:04.816Z,16.18
2018-05-12T23:39:32.311Z,16.17
2018-05-12T23:41:59.840Z,16.17
2018-05-12T23:44:27.300Z,16.15
2018-05-12T23:46:54.793Z,16.16
2018-05-12T23:49:22.430Z,16.12
2018-05-12T23:51:49.898Z,16.08
2018-05-12T23:54:17.384Z,16.06
2018-05-12T23:56:44.855Z,16.06
2018-05-12T23:59:12.439Z,16.02
